createdAt,value
2023-06-05T00:02:17.713Z,2.30
2023-06-05T00:04:45.832Z,2.00
2023-06-05T00:07:13.301Z,2.20
2023-06-05T00:09:41.172Z,2.40
2023-06-05T00:12:08.961Z,2.10
2023-06-05T00:14:36.514Z,1.50
2023-06-05T00:17:04.902Z,1.90
2023-06-05T00:19:32.656Z,2.10
2023-06-05T00:22:00.615Z,2.10
2023-06-05T00:24:27.924Z,2.00
2023-06-05T00:26:55.792Z,2.10
2023-06-05T00:29:23.065Z,1.70
2023-06-05T00:31:50.408Z,2.00
2023-06-05T00:34:17.805Z,1.90
2023-06-05T00:36:45.086Z,1.50
2023-06-05T00:39:12.404Z,1.60
2023-06-05T00:41:43.570Z,1.70
2023-06-05T00:44:11.839Z,1.50
2023-06-05T00:46:40.640Z,1.70
2023-06-05T00:49:09.656Z,1.80
2023-06-05T00:51:37.339Z,2.10
2023-06-05T00:54:06.514Z,1.80
2023-06-05T00:56:37.633Z,1.50
2023-06-05T00:59:05.516Z,1.60
2023-06-05T01:04:28.734Z,1.40
2023-06-05T01:06:58.775Z,1.70
2023-06-05T01:09:26.850Z,1.50
2023-06-05T01:12:01.950Z,2.20
2023-06-05T01:14:32.193Z,1.70
2023-06-05T01:17:02.357Z,1.70
2023-06-05T01:19:33.092Z,1.40
2023-06-05T01:22:01.404Z,1.80
2023-06-05T01:24:29.544Z,2.00
2023-06-05T01:27:03.953Z,1.40
2023-06-05T01:29:42.602Z,1.60
2023-06-05T01:32:17.730Z,1.70
2023-06-05T01:34:46.518Z,2.00
2023-06-05T01:37:16.096Z,1.60
2023-06-05T01:39:46.755Z,1.60
2023-06-05T01:42:15.163Z,1.60
2023-06-05T01:44:44.368Z,2.00
2023-06-05T01:47:13.813Z,1.80
2023-06-05T01:49:42.132Z,1.80
2023-06-05T01:52:09.351Z,1.80
2023-06-05T01:54:37.187Z,1.80
2023-06-05T01:57:05.930Z,1.60
2023-06-05T01:59:35.379Z,1.80
2023-06-05T02:02:05.426Z,1.90
2023-06-05T02:04:34.060Z,1.70
2023-06-05T02:07:04.834Z,1.60
2023-06-05T02:09:35.393Z,1.40
2023-06-05T02:12:05.477Z,1.40
2023-06-05T02:14:39.016Z,1.40
2023-06-05T02:17:07.677Z,1.50
2023-06-05T02:19:35.455Z,1.50
2023-06-05T02:22:03.162Z,1.50
2023-06-05T02:24:30.508Z,1.80
2023-06-05T02:26:58.684Z,1.50
2023-06-05T02:29:25.904Z,1.90
2023-06-05T02:31:53.193Z,1.60
2023-06-05T02:34:21.499Z,1.70
2023-06-05T02:36:49.442Z,1.50
2023-06-05T02:39:17.169Z,1.60
2023-06-05T02:41:45.802Z,1.40
2023-06-05T02:44:13.107Z,1.50
2023-06-05T02:46:40.952Z,1.40
2023-06-05T02:49:08.394Z,1.60
2023-06-05T02:51:36.400Z,1.50
2023-06-05T02:54:04.467Z,1.70
2023-06-05T02:56:31.736Z,1.50
2023-06-05T02:58:59.070Z,1.60
2023-06-05T03:01:26.982Z,1.40
2023-06-05T03:03:54.896Z,1.80
2023-06-05T03:06:22.170Z,1.50
2023-06-05T03:08:49.766Z,1.90
2023-06-05T03:11:17.287Z,1.40
2023-06-05T03:13:44.561Z,1.40
2023-06-05T03:16:12.171Z,1.60
2023-06-05T03:18:39.632Z,1.40
2023-06-05T03:21:07.241Z,1.60
2023-06-05T03:23:34.918Z,1.60
2023-06-05T03:26:02.163Z,1.40
2023-06-05T03:28:32.149Z,1.60
2023-06-05T03:30:59.428Z,1.60
2023-06-05T03:33:27.245Z,1.50
2023-06-05T03:35:54.532Z,1.70
2023-06-05T03:38:21.776Z,1.40
2023-06-05T03:40:49.322Z,1.40
2023-06-05T03:43:17.128Z,1.60
2023-06-05T03:45:44.486Z,1.60
2023-06-05T03:48:12.043Z,1.80
2023-06-05T03:50:39.917Z,1.60
2023-06-05T03:53:09.356Z,1.50
2023-06-05T03:55:43.071Z,1.60
2023-06-05T03:58:15.489Z,1.70
2023-06-05T04:00:46.663Z,1.40
2023-06-05T04:03:14.665Z,1.30
2023-06-05T04:05:43.109Z,1.30
2023-06-05T04:08:11.387Z,1.50
2023-06-05T04:10:40.024Z,1.60
2023-06-05T04:13:07.544Z,1.50
2023-06-05T04:15:35.384Z,1.50
2023-06-05T04:18:02.890Z,1.20
2023-06-05T04:20:30.167Z,1.80
2023-06-05T04:22:57.454Z,1.10
2023-06-05T04:25:24.992Z,1.50
2023-06-05T04:27:52.938Z,1.20
2023-06-05T04:30:20.742Z,1.60
2023-06-05T04:32:55.797Z,1.40
2023-06-05T04:35:24.177Z,1.60
2023-06-05T04:37:51.975Z,1.60
2023-06-05T04:40:22.142Z,1.50
2023-06-05T04:42:49.771Z,2.20
2023-06-05T04:45:18.203Z,1.60
2023-06-05T04:47:45.844Z,1.70
2023-06-05T04:50:25.649Z,1.20
2023-06-05T04:52:54.328Z,1.60
2023-06-05T04:55:22.627Z,1.40
2023-06-05T04:57:50.075Z,1.30
2023-06-05T05:00:17.681Z,1.40
2023-06-05T05:02:45.107Z,1.70
2023-06-05T05:05:14.876Z,1.50
2023-06-05T05:07:42.981Z,1.40
2023-06-05T05:10:11.714Z,1.50
2023-06-05T05:12:39.845Z,1.50
2023-06-05T05:15:07.722Z,1.50
2023-06-05T05:17:35.377Z,1.60
2023-06-05T05:20:05.267Z,1.40
2023-06-05T05:22:32.388Z,1.60
2023-06-05T05:24:59.546Z,1.90
2023-06-05T05:27:26.891Z,1.20
2023-06-05T05:29:54.084Z,1.60
2023-06-05T05:32:21.343Z,1.50
2023-06-05T05:34:49.337Z,1.60
2023-06-05T05:37:16.787Z,1.50
2023-06-05T05:39:43.989Z,1.30
2023-06-05T05:42:11.573Z,1.60
2023-06-05T05:44:38.972Z,1.70
2023-06-05T05:47:06.166Z,1.60
2023-06-05T05:49:33.873Z,1.50
2023-06-05T05:52:01.227Z,2.00
2023-06-05T05:54:28.849Z,1.90
2023-06-05T05:56:56.690Z,1.80
2023-06-05T05:59:24.633Z,2.00
2023-06-05T06:01:52.245Z,1.60
2023-06-05T06:04:20.836Z,1.40
2023-06-05T06:06:53.935Z,1.50
2023-06-05T06:09:21.220Z,1.80
2023-06-05T06:11:48.542Z,1.60
2023-06-05T06:14:16.679Z,1.70
2023-06-05T06:16:45.078Z,1.70
2023-06-05T06:19:16.044Z,1.60
2023-06-05T06:21:44.431Z,1.90
2023-06-05T06:24:11.766Z,1.60
2023-06-05T06:26:40.958Z,1.70
2023-06-05T06:29:08.279Z,1.40
2023-06-05T06:31:35.696Z,1.30
2023-06-05T06:34:02.926Z,1.50
2023-06-05T06:36:30.129Z,1.50
2023-06-05T06:38:57.693Z,1.90
2023-06-05T06:41:27.113Z,1.70
2023-06-05T06:43:54.580Z,1.70
2023-06-05T06:46:21.973Z,1.60
2023-06-05T06:48:49.517Z,1.70
2023-06-05T06:51:17.339Z,1.40
2023-06-05T06:53:45.426Z,1.50
2023-06-05T06:56:13.146Z,1.70
2023-06-05T06:58:40.447Z,1.50
2023-06-05T07:01:08.332Z,1.50
2023-06-05T07:03:35.961Z,1.80
2023-06-05T07:06:03.625Z,1.60
2023-06-05T07:08:31.040Z,1.40
2023-06-05T07:10:58.447Z,1.30
2023-06-05T07:13:26.524Z,1.30
2023-06-05T07:15:54.009Z,1.20
2023-06-05T07:18:21.670Z,1.30
2023-06-05T07:20:49.206Z,1.40
2023-06-05T07:23:17.385Z,1.40
2023-06-05T07:25:47.391Z,1.40
2023-06-05T07:28:15.076Z,1.50
2023-06-05T07:30:44.754Z,1.00
2023-06-05T07:33:22.116Z,1.20
2023-06-05T07:35:57.210Z,0.90
2023-06-05T07:38:24.751Z,0.90
2023-06-05T07:40:52.295Z,1.10
2023-06-05T07:43:19.615Z,1.00
2023-06-05T07:45:46.926Z,1.10
2023-06-05T07:48:14.421Z,1.30
2023-06-05T07:50:42.107Z,1.60
2023-06-05T07:53:09.437Z,1.00
2023-06-05T07:55:36.643Z,1.10
2023-06-05T07:58:04.387Z,1.10
2023-06-05T08:00:31.655Z,1.00
2023-06-05T08:03:00.121Z,1.00
2023-06-05T08:05:28.159Z,1.00
2023-06-05T08:07:55.299Z,1.20
2023-06-05T08:10:23.000Z,1.40
2023-06-05T08:12:50.689Z,1.50
2023-06-05T08:15:18.310Z,1.20
2023-06-05T08:17:45.679Z,1.30
2023-06-05T08:20:13.355Z,1.10
2023-06-05T08:22:41.794Z,0.90
2023-06-05T08:25:09.577Z,1.10
2023-06-05T08:27:36.965Z,1.00
2023-06-05T08:30:05.233Z,1.10
2023-06-05T08:32:32.674Z,1.20
2023-06-05T08:35:00.008Z,1.00
2023-06-05T08:37:29.760Z,1.30
2023-06-05T08:40:00.123Z,1.40
2023-06-05T08:42:30.053Z,1.30
2023-06-05T08:45:02.533Z,1.60
2023-06-05T08:47:34.358Z,1.30
2023-06-05T08:50:06.025Z,1.20
2023-06-05T08:52:40.042Z,1.10
2023-06-05T08:55:09.199Z,1.30
2023-06-05T08:57:39.702Z,1.40
2023-06-05T09:00:11.962Z,1.00
2023-06-05T09:02:41.933Z,1.20
2023-06-05T09:05:10.109Z,1.10
2023-06-05T09:07:40.536Z,1.10
2023-06-05T09:10:22.728Z,1.10
2023-06-05T09:13:03.553Z,0.90
2023-06-05T09:19:29.210Z,1.60
2023-06-05T09:21:57.085Z,1.30
2023-06-05T09:24:25.773Z,1.30
2023-06-05T09:27:13.111Z,1.20
2023-06-05T09:29:42.643Z,1.00
2023-06-05T09:32:21.261Z,1.10
2023-06-05T09:35:01.458Z,1.10
2023-06-05T09:37:37.044Z,1.20
2023-06-05T09:40:09.493Z,1.30
2023-06-05T09:42:37.074Z,1.20
2023-06-05T09:45:06.171Z,1.10
2023-06-05T09:47:45.558Z,1.30
2023-06-05T09:50:29.161Z,1.10
2023-06-05T09:52:58.300Z,1.00
2023-06-05T09:55:27.722Z,1.30
2023-06-05T09:57:58.663Z,1.30
2023-06-05T10:00:26.899Z,1.00
2023-06-05T10:02:57.146Z,0.90
2023-06-05T10:05:24.743Z,1.20
2023-06-05T10:07:55.708Z,1.30
2023-06-05T10:10:23.951Z,1.00
2023-06-05T10:12:52.387Z,1.30
2023-06-05T10:15:19.892Z,1.30
2023-06-05T10:17:50.340Z,1.60
2023-06-05T10:20:19.364Z,1.20
2023-06-05T10:22:48.225Z,1.30
2023-06-05T10:25:17.859Z,1.20
2023-06-05T10:28:06.865Z,1.40
2023-06-05T10:31:04.267Z,1.30
2023-06-05T10:34:14.755Z,1.40
2023-06-05T10:36:44.956Z,1.40
2023-06-05T10:39:15.768Z,1.20
2023-06-05T10:41:43.434Z,1.10
2023-06-05T10:44:10.954Z,1.20
2023-06-05T10:46:39.638Z,1.20
2023-06-05T10:49:10.688Z,1.30
2023-06-05T10:51:52.307Z,1.30
2023-06-05T10:54:25.723Z,1.30
2023-06-05T10:56:53.406Z,1.20
2023-06-05T10:59:23.238Z,1.40
2023-06-05T11:02:14.691Z,1.50
2023-06-05T11:04:44.887Z,1.30
2023-06-05T11:07:28.531Z,1.40
2023-06-05T11:10:04.906Z,1.50
2023-06-05T11:12:44.200Z,1.20
2023-06-05T11:15:13.389Z,1.30
2023-06-05T11:17:43.378Z,1.50
2023-06-05T11:20:31.015Z,1.70
2023-06-05T11:23:01.078Z,1.20
2023-06-05T11:25:29.963Z,1.60
2023-06-05T11:28:14.371Z,1.40
2023-06-05T11:30:49.798Z,1.40
2023-06-05T11:33:22.628Z,1.50
2023-06-05T11:35:53.993Z,1.30
2023-06-05T11:38:25.476Z,1.30
2023-06-05T11:40:55.010Z,1.30
2023-06-05T11:43:22.945Z,1.30
2023-06-05T11:45:55.773Z,1.40
2023-06-05T11:48:23.718Z,1.50
2023-06-05T11:51:04.504Z,1.60
2023-06-05T11:53:33.643Z,1.20
2023-06-05T11:56:10.405Z,1.90
2023-06-05T11:58:40.826Z,1.50
2023-06-05T12:01:23.674Z,1.30
2023-06-05T12:04:05.337Z,1.30
2023-06-05T12:06:33.080Z,1.30
2023-06-05T12:09:11.149Z,1.70
2023-06-05T12:11:43.558Z,1.30
2023-06-05T12:14:13.133Z,1.10
2023-06-05T12:16:46.460Z,1.40
2023-06-05T12:19:19.909Z,1.10
2023-06-05T12:21:49.503Z,1.50
2023-06-05T12:24:16.750Z,1.40
2023-06-05T12:27:01.328Z,1.30
2023-06-05T12:29:36.864Z,1.20
2023-06-05T12:37:31.423Z,1.50
2023-06-05T12:40:00.387Z,1.40
2023-06-05T12:42:28.663Z,1.10
2023-06-05T12:44:57.012Z,1.30
2023-06-05T12:47:24.297Z,1.60
2023-06-05T12:49:52.048Z,1.20
2023-06-05T12:52:20.709Z,1.30
2023-06-05T12:54:48.008Z,1.60
2023-06-05T12:57:16.520Z,1.30
2023-06-05T12:59:43.943Z,1.50
2023-06-05T13:02:11.377Z,1.40
2023-06-05T13:04:38.798Z,1.30
2023-06-05T13:07:07.348Z,1.60
2023-06-05T13:09:35.565Z,1.20
2023-06-05T13:12:05.356Z,1.50
2023-06-05T13:14:33.619Z,1.60
2023-06-05T13:17:01.575Z,1.80
2023-06-05T13:19:29.302Z,1.70
2023-06-05T13:21:56.993Z,1.60
2023-06-05T13:24:24.520Z,1.80
2023-06-05T13:26:51.859Z,1.80
2023-06-05T13:29:19.100Z,1.80
2023-06-05T13:31:46.403Z,1.10
2023-06-05T13:34:13.739Z,1.40
2023-06-05T13:36:41.442Z,1.20
2023-06-05T13:39:08.726Z,1.70
2023-06-05T13:41:37.039Z,1.50
2023-06-05T13:44:04.844Z,1.50
2023-06-05T13:46:32.122Z,1.40
2023-06-05T13:49:01.708Z,1.40
2023-06-05T13:51:29.457Z,1.50
2023-06-05T13:53:59.342Z,1.40
2023-06-05T13:56:26.963Z,1.30
2023-06-05T13:58:55.780Z,1.50
2023-06-05T14:01:23.269Z,1.40
2023-06-05T14:03:51.608Z,1.70
2023-06-05T14:06:19.712Z,1.50
2023-06-05T14:08:47.061Z,1.70
2023-06-05T14:11:14.755Z,1.50
2023-06-05T14:13:43.097Z,1.40
2023-06-05T14:16:13.669Z,1.80
2023-06-05T14:18:41.262Z,1.50
2023-06-05T14:21:09.319Z,1.60
2023-06-05T14:23:36.694Z,1.50
2023-06-05T14:26:04.028Z,1.50
2023-06-05T14:28:31.666Z,1.20
2023-06-05T14:30:59.177Z,1.80
2023-06-05T14:33:26.504Z,1.80
2023-06-05T14:35:54.176Z,1.40
2023-06-05T14:38:21.578Z,1.70
2023-06-05T14:40:52.066Z,1.60
2023-06-05T14:43:19.703Z,1.80
2023-06-05T14:45:47.350Z,1.60
2023-06-05T14:48:15.112Z,1.60
2023-06-05T14:50:42.815Z,1.60
2023-06-05T14:53:10.217Z,1.60
2023-06-05T14:55:38.640Z,1.50
2023-06-05T14:58:08.753Z,2.00
2023-06-05T15:00:36.173Z,2.40
2023-06-05T15:03:04.433Z,1.90
2023-06-05T15:05:32.312Z,3.60
2023-06-05T15:08:00.598Z,6.30
2023-06-05T15:10:28.402Z,5.30
2023-06-05T15:12:58.883Z,4.50
2023-06-05T15:15:27.527Z,3.40
2023-06-05T15:17:55.057Z,2.70
2023-06-05T15:20:25.817Z,2.50
2023-06-05T15:25:26.854Z,2.60
2023-06-05T15:27:55.663Z,2.50
2023-06-05T15:30:23.105Z,1.90
2023-06-05T15:32:50.854Z,1.80
2023-06-05T15:35:18.619Z,2.50
2023-06-05T15:37:45.899Z,1.90
2023-06-05T15:40:13.852Z,1.70
2023-06-05T15:42:44.318Z,1.50
2023-06-05T15:45:12.624Z,1.80
2023-06-05T15:47:41.629Z,1.60
2023-06-05T15:50:10.109Z,2.20
2023-06-05T15:52:40.297Z,1.70
2023-06-05T15:55:08.048Z,2.50
2023-06-05T15:57:36.379Z,1.50
2023-06-05T16:00:04.188Z,1.80
2023-06-05T16:02:31.471Z,1.60
2023-06-05T16:04:59.987Z,1.70
2023-06-05T16:07:29.625Z,2.10
2023-06-05T16:09:57.882Z,2.30
2023-06-05T16:12:25.585Z,2.20
2023-06-05T16:14:54.462Z,1.90
2023-06-05T16:17:22.136Z,2.10
2023-06-05T16:19:52.587Z,1.80
2023-06-05T16:22:20.846Z,1.80
2023-06-05T16:24:48.230Z,1.80
2023-06-05T16:27:17.937Z,2.70
2023-06-05T16:29:46.897Z,4.00
2023-06-05T16:32:15.313Z,3.70
2023-06-05T16:34:42.811Z,2.10
2023-06-05T16:37:10.231Z,2.30
2023-06-05T16:39:38.198Z,2.30
2023-06-05T16:42:07.411Z,1.90
2023-06-05T16:44:36.464Z,2.10
2023-06-05T16:47:04.975Z,1.60
2023-06-05T16:49:32.601Z,1.90
2023-06-05T16:51:59.800Z,1.70
2023-06-05T16:54:27.409Z,1.70
2023-06-05T16:56:57.778Z,1.70
2023-06-05T16:59:25.161Z,1.70
2023-06-05T17:01:52.808Z,1.50
2023-06-05T17:04:20.391Z,1.70
2023-06-05T17:06:48.314Z,1.80
2023-06-05T17:09:18.465Z,1.50
2023-06-05T17:11:46.664Z,1.60
2023-06-05T17:14:14.049Z,1.80
2023-06-05T17:16:42.391Z,1.70
2023-06-05T17:19:09.757Z,1.80
2023-06-05T17:21:37.871Z,1.50
2023-06-05T17:24:05.701Z,1.90
2023-06-05T17:26:33.219Z,1.10
2023-06-05T17:29:00.992Z,1.70
2023-06-05T17:31:32.556Z,1.90
2023-06-05T17:33:59.975Z,1.70
2023-06-05T17:36:27.347Z,1.80
2023-06-05T17:38:55.337Z,1.80
2023-06-05T17:41:22.819Z,2.00
2023-06-05T17:44:30.172Z,2.10
2023-06-05T17:47:17.129Z,2.10
2023-06-05T17:49:45.349Z,1.70
2023-06-05T17:52:12.895Z,2.40
2023-06-05T17:55:22.633Z,2.90
2023-06-05T17:58:26.075Z,3.20
2023-06-05T18:00:53.693Z,6.10
2023-06-05T18:03:23.326Z,5.80
2023-06-05T18:05:51.087Z,5.00
2023-06-05T18:08:18.787Z,3.80
2023-06-05T18:10:46.197Z,3.10
2023-06-05T18:13:14.318Z,3.00
2023-06-05T18:15:42.747Z,2.60
2023-06-05T18:18:11.087Z,3.30
2023-06-05T18:20:38.510Z,2.90
2023-06-05T18:23:05.987Z,3.00
2023-06-05T18:25:33.689Z,3.10
2023-06-05T18:28:01.158Z,2.70
2023-06-05T18:30:28.478Z,3.30
2023-06-05T18:32:55.812Z,3.20
2023-06-05T18:35:23.878Z,3.20
2023-06-05T18:37:51.559Z,3.90
2023-06-05T18:40:19.046Z,3.00
2023-06-05T18:42:46.455Z,3.00
2023-06-05T18:45:13.806Z,2.80
2023-06-05T18:47:41.476Z,2.60
2023-06-05T18:50:09.067Z,2.70
2023-06-05T18:52:36.611Z,2.80
2023-06-05T18:55:04.856Z,3.10
2023-06-05T18:57:32.735Z,2.70
2023-06-05T19:00:00.165Z,3.10
2023-06-05T19:02:27.635Z,2.90
2023-06-05T19:04:54.929Z,2.60
2023-06-05T19:07:22.176Z,2.70
2023-06-05T19:09:49.465Z,2.60
2023-06-05T19:12:16.916Z,2.40
2023-06-05T19:14:44.166Z,2.60
2023-06-05T19:17:11.809Z,2.30
2023-06-05T19:19:39.325Z,2.20
2023-06-05T19:22:06.589Z,2.70
2023-06-05T19:24:34.048Z,2.80
2023-06-05T19:27:01.255Z,2.20
2023-06-05T19:29:28.890Z,2.30
2023-06-05T19:31:56.694Z,2.70
2023-06-05T19:34:24.184Z,2.60
2023-06-05T19:36:51.780Z,2.90
2023-06-05T19:39:21.900Z,2.50
2023-06-05T19:41:54.282Z,2.70
2023-06-05T19:44:21.755Z,2.70
2023-06-05T19:46:49.149Z,3.10
2023-06-05T19:49:16.569Z,2.90
2023-06-05T19:51:44.074Z,2.90
2023-06-05T19:54:14.193Z,2.80
2023-06-05T19:56:45.175Z,2.50
2023-06-05T19:59:12.620Z,2.70
2023-06-05T20:01:40.029Z,2.70
2023-06-05T20:04:07.678Z,3.80
2023-06-05T20:06:35.289Z,3.20
2023-06-05T20:09:02.973Z,3.50
2023-06-05T20:11:30.720Z,3.80
2023-06-05T20:13:57.957Z,3.60
2023-06-05T20:16:25.201Z,3.20
2023-06-05T20:18:53.943Z,3.30
2023-06-05T20:21:21.293Z,3.10
2023-06-05T20:23:53.194Z,2.60
2023-06-05T20:26:22.167Z,2.40
2023-06-05T20:28:50.048Z,3.00
2023-06-05T20:31:17.440Z,2.90
2023-06-05T20:33:45.003Z,2.10
2023-06-05T20:36:16.566Z,2.40
2023-06-05T20:38:43.902Z,2.40
2023-06-05T20:41:14.291Z,2.10
2023-06-05T20:43:43.437Z,2.10
2023-06-05T20:46:11.665Z,1.60
2023-06-05T20:48:39.762Z,1.50
2023-06-05T20:51:11.453Z,2.10
2023-06-05T20:53:39.221Z,2.10
2023-06-05T20:56:06.729Z,2.00
2023-06-05T20:58:34.273Z,1.70
2023-06-05T21:01:01.851Z,1.80
2023-06-05T21:03:29.675Z,1.70
2023-06-05T21:05:57.510Z,1.90
2023-06-05T21:08:24.947Z,1.70
2023-06-05T21:10:52.569Z,1.60
2023-06-05T21:13:20.316Z,1.60
2023-06-05T21:15:47.879Z,1.60
2023-06-05T21:18:15.073Z,1.80
2023-06-05T21:20:42.472Z,1.70
2023-06-05T21:23:10.445Z,1.70
2023-06-05T21:25:38.029Z,1.70
2023-06-05T21:28:05.247Z,1.30
2023-06-05T21:30:32.515Z,1.30
2023-06-05T21:33:00.084Z,1.30
2023-06-05T21:35:28.679Z,1.20
2023-06-05T21:37:58.616Z,1.80
2023-06-05T21:40:26.005Z,1.50
2023-06-05T21:42:53.284Z,1.20
2023-06-05T21:45:20.639Z,1.40
2023-06-05T21:47:48.250Z,1.60
2023-06-05T21:50:16.317Z,1.40
2023-06-05T21:52:43.681Z,1.60
2023-06-05T21:55:11.074Z,1.70
2023-06-05T21:57:38.315Z,1.50
2023-06-05T22:00:08.509Z,1.10
2023-06-05T22:02:35.858Z,1.30
2023-06-05T22:05:04.575Z,1.10
2023-06-05T22:07:36.872Z,1.30
2023-06-05T22:10:06.202Z,1.40
2023-06-05T22:12:35.575Z,1.00
2023-06-05T22:15:05.081Z,1.50
2023-06-05T22:17:33.504Z,1.10
2023-06-05T22:20:07.853Z,1.40
2023-06-05T22:22:36.008Z,1.20
2023-06-05T22:25:03.296Z,1.10
2023-06-05T22:27:30.755Z,1.40
2023-06-05T22:29:57.889Z,1.30
2023-06-05T22:32:26.047Z,1.30
2023-06-05T22:34:56.242Z,1.10
2023-06-05T22:37:26.935Z,1.10
2023-06-05T22:39:54.659Z,1.20
2023-06-05T22:42:22.332Z,1.00
2023-06-05T22:44:49.747Z,0.90
2023-06-05T22:47:18.944Z,1.10
2023-06-05T22:49:46.897Z,0.90
2023-06-05T22:52:16.656Z,1.10
2023-06-05T22:54:43.884Z,1.30
2023-06-05T22:57:11.161Z,1.20
2023-06-05T22:59:38.772Z,0.80
2023-06-05T23:02:06.428Z,1.10
2023-06-05T23:04:40.076Z,1.30
2023-06-05T23:07:09.010Z,1.10
2023-06-05T23:09:36.928Z,1.30
2023-06-05T23:12:05.347Z,1.20
2023-06-05T23:14:34.179Z,1.10
2023-06-05T23:17:02.163Z,1.10
2023-06-05T23:19:29.821Z,1.20
2023-06-05T23:21:57.262Z,1.00
2023-06-05T23:24:24.577Z,1.20
2023-06-05T23:26:52.860Z,1.20
2023-06-05T23:29:20.336Z,1.10
2023-06-05T23:31:49.161Z,1.00
2023-06-05T23:34:16.772Z,1.00
2023-06-05T23:36:44.725Z,1.50
2023-06-05T23:39:12.614Z,1.30
2023-06-05T23:41:40.374Z,1.20
2023-06-05T23:44:07.770Z,1.20
2023-06-05T23:46:35.102Z,0.90
2023-06-05T23:49:02.576Z,1.10
2023-06-05T23:51:30.213Z,1.00
2023-06-05T23:53:58.401Z,1.30
2023-06-05T23:56:27.501Z,1.40
2023-06-05T23:58:58.320Z,1.30
